X  Lukk Metar værinformasjon om luftfart        LGTS Thessaloniki Macedonia International
Temperatur
84°F Temperatur
72°F Duggpunkt
66% Luftfuktighet



Vind
10 MPT
17 KM/T
4 M/S
9 KNP



290°
VNV
Nåværende forhold

Mostly Sunny For det meste sol
Trykk 1016 (hPa) - 30 (inHg)
Sikt 6 (mil) - 10 (km)
Flyplass
Flyplass-kode LGTS

Plassering: Thessaloniki Macedonia International
Avstand: 85 (mi)

Metar:
METAR LGTS 200820Z 29009KT 250V340 CAVOK 29/22 Q1016 NOSIG

Tid: 20-06-2024 11:20 EEST